createdAt,value
2017-11-22T00:00:01.600Z,5.30
2017-11-22T00:02:28.180Z,5.60
2017-11-22T00:04:54.771Z,5.93
2017-11-22T00:07:21.366Z,6.67
2017-11-22T00:09:47.967Z,5.80
2017-11-22T00:12:14.546Z,5.80
2017-11-22T00:14:41.155Z,5.97
2017-11-22T00:17:07.736Z,5.90
2017-11-22T00:19:34.307Z,6.07
2017-11-22T00:22:00.900Z,6.20
2017-11-22T00:24:27.479Z,5.80
2017-11-22T00:26:54.059Z,5.90
2017-11-22T00:29:20.653Z,6.27
2017-11-22T00:31:47.240Z,6.40
2017-11-22T00:34:13.821Z,5.80
2017-11-22T00:36:40.399Z,5.93
2017-11-22T00:39:06.994Z,5.53
2017-11-22T00:41:33.580Z,5.43
2017-11-22T00:44:00.151Z,5.80
2017-11-22T00:46:26.752Z,5.63
2017-11-22T00:48:53.323Z,5.73
2017-11-22T00:51:19.907Z,5.70
2017-11-22T00:53:46.603Z,5.47
2017-11-22T00:56:13.182Z,6.10
2017-11-22T00:58:39.760Z,6.07
2017-11-22T01:01:06.336Z,5.47
2017-11-22T01:03:32.927Z,5.90
2017-11-22T01:05:59.507Z,6.03
2017-11-22T01:08:26.095Z,6.00
2017-11-22T01:10:52.728Z,5.70
2017-11-22T01:13:19.288Z,5.90
2017-11-22T01:15:45.875Z,5.77
2017-11-22T01:18:12.447Z,5.60
2017-11-22T01:20:39.043Z,5.87
2017-11-22T01:23:05.619Z,5.47
2017-11-22T01:25:32.199Z,5.10
2017-11-22T01:27:58.801Z,5.50
2017-11-22T01:30:25.371Z,5.73
2017-11-22T01:32:51.967Z,5.83
2017-11-22T01:35:18.543Z,6.00
2017-11-22T01:37:45.114Z,5.40
2017-11-22T01:40:11.707Z,5.93
2017-11-22T01:42:38.283Z,5.40
2017-11-22T01:45:04.876Z,6.30
2017-11-22T01:47:31.436Z,5.63
2017-11-22T01:49:58.031Z,5.47
2017-11-22T01:52:24.613Z,5.10
2017-11-22T01:54:51.193Z,5.77
2017-11-22T01:57:17.774Z,5.53
2017-11-22T01:59:44.350Z,5.17
2017-11-22T02:02:10.953Z,5.40
2017-11-22T02:04:37.527Z,5.33
2017-11-22T02:07:04.103Z,5.50
2017-11-22T02:09:30.706Z,5.30
2017-11-22T02:11:57.352Z,5.37
2017-11-22T02:14:23.927Z,5.07
2017-11-22T02:16:50.508Z,5.30
2017-11-22T02:19:17.096Z,4.90
2017-11-22T02:21:43.683Z,4.90
2017-11-22T02:24:10.267Z,5.00
2017-11-22T02:26:36.855Z,5.43
2017-11-22T02:29:03.439Z,5.47
2017-11-22T02:31:30.029Z,5.23
2017-11-22T02:33:56.609Z,5.70
2017-11-22T02:36:23.180Z,5.00
2017-11-22T02:38:49.776Z,5.40
2017-11-22T02:41:16.356Z,5.70
2017-11-22T02:43:42.951Z,5.33
2017-11-22T02:46:09.534Z,5.00
2017-11-22T02:48:36.104Z,5.30
2017-11-22T02:51:02.699Z,4.97
2017-11-22T02:53:29.299Z,5.37
2017-11-22T02:55:55.891Z,5.40
2017-11-22T02:58:22.463Z,5.60
2017-11-22T03:00:49.076Z,5.27
2017-11-22T03:03:15.655Z,5.60
2017-11-22T03:05:42.231Z,5.30
2017-11-22T03:08:08.824Z,5.07
2017-11-22T03:10:35.532Z,4.90
2017-11-22T03:13:02.100Z,5.20
2017-11-22T03:15:28.701Z,5.30
2017-11-22T03:17:55.280Z,5.50
2017-11-22T03:20:21.847Z,4.90
2017-11-22T03:22:48.436Z,5.50
2017-11-22T03:25:15.123Z,5.13
2017-11-22T03:27:41.689Z,5.50
2017-11-22T03:30:08.276Z,5.53
2017-11-22T03:32:34.854Z,5.10
2017-11-22T03:35:01.448Z,5.13
2017-11-22T03:37:28.032Z,5.40
2017-11-22T03:39:54.617Z,5.00
2017-11-22T03:42:21.207Z,4.70
2017-11-22T03:44:47.791Z,5.43
2017-11-22T03:47:14.376Z,5.33
2017-11-22T03:49:46.644Z,5.43
2017-11-22T03:52:19.743Z,5.27
2017-11-22T03:54:46.331Z,5.27
2017-11-22T03:57:12.919Z,5.27
2017-11-22T03:59:39.494Z,5.60
2017-11-22T04:02:06.095Z,5.37
2017-11-22T04:04:33.591Z,5.20
2017-11-22T04:07:00.167Z,5.10
2017-11-22T04:09:26.759Z,5.50
2017-11-22T04:11:53.340Z,5.00
2017-11-22T04:14:19.931Z,4.90
2017-11-22T04:16:46.511Z,5.20
2017-11-22T04:19:18.778Z,5.50
2017-11-22T04:21:45.351Z,5.47
2017-11-22T04:24:11.935Z,5.50
2017-11-22T04:26:38.518Z,5.43
2017-11-22T04:29:05.095Z,5.60
2017-11-22T04:31:31.686Z,5.50
2017-11-22T04:33:58.268Z,5.93
2017-11-22T04:36:24.859Z,5.43
2017-11-22T04:38:51.445Z,5.90
2017-11-22T04:41:18.039Z,5.23
2017-11-22T04:43:44.643Z,5.57
2017-11-22T04:46:11.223Z,5.77
2017-11-22T04:48:37.807Z,5.40
2017-11-22T04:51:04.387Z,5.70
2017-11-22T04:53:30.987Z,5.30
2017-11-22T04:55:57.569Z,5.10
2017-11-22T04:58:24.142Z,5.23
2017-11-22T05:00:50.741Z,4.90
2017-11-22T05:03:17.328Z,5.30
2017-11-22T05:05:44.006Z,5.20
2017-11-22T05:08:10.567Z,5.30
2017-11-22T05:10:37.163Z,5.40
2017-11-22T05:13:03.748Z,5.43
2017-11-22T05:15:30.328Z,5.87
2017-11-22T05:17:56.914Z,5.40
2017-11-22T05:20:23.491Z,6.37
2017-11-22T05:22:50.093Z,5.53
2017-11-22T05:25:16.673Z,5.47
2017-11-22T05:27:43.264Z,5.80
2017-11-22T05:30:09.839Z,5.47
2017-11-22T05:32:36.411Z,5.43
2017-11-22T05:35:03.000Z,5.17
2017-11-22T05:37:29.579Z,5.60
2017-11-22T05:39:56.179Z,5.40
2017-11-22T05:42:22.759Z,5.57
2017-11-22T05:44:49.364Z,5.37
2017-11-22T05:47:15.940Z,5.70
2017-11-22T05:49:42.509Z,5.50
2017-11-22T05:52:09.107Z,5.60
2017-11-22T05:54:35.687Z,5.80
2017-11-22T05:57:02.282Z,5.77
2017-11-22T05:59:28.860Z,5.90
2017-11-22T06:01:55.463Z,5.20
2017-11-22T06:04:22.042Z,5.30
2017-11-22T06:06:48.624Z,5.93
2017-11-22T06:09:15.206Z,5.50
2017-11-22T06:11:41.783Z,5.73
2017-11-22T06:14:08.367Z,5.50
2017-11-22T06:16:34.947Z,5.40
2017-11-22T06:19:01.522Z,5.90
2017-11-22T06:21:28.103Z,6.43
2017-11-22T06:23:54.692Z,5.67
2017-11-22T06:26:21.283Z,5.53
2017-11-22T06:28:47.879Z,5.73
2017-11-22T06:31:14.465Z,5.90
2017-11-22T06:33:41.048Z,5.70
2017-11-22T06:36:07.636Z,5.83
2017-11-22T06:38:34.227Z,5.87
2017-11-22T06:41:00.813Z,6.07
2017-11-22T06:43:27.463Z,5.10
2017-11-22T06:45:54.058Z,5.80
2017-11-22T06:48:20.635Z,5.97
2017-11-22T06:50:47.231Z,6.07
2017-11-22T06:53:13.829Z,6.50
2017-11-22T06:55:40.425Z,6.10
2017-11-22T06:58:07.005Z,6.13
2017-11-22T07:00:33.611Z,6.40
2017-11-22T07:03:00.971Z,6.67
2017-11-22T07:05:27.559Z,6.40
2017-11-22T07:07:54.150Z,6.00
2017-11-22T07:10:20.735Z,6.60
2017-11-22T07:12:47.332Z,6.20
2017-11-22T07:15:14.646Z,5.90
2017-11-22T07:17:42.023Z,6.63
2017-11-22T07:20:08.630Z,6.40
2017-11-22T07:22:35.222Z,6.63
2017-11-22T07:25:01.808Z,6.30
2017-11-22T07:27:28.388Z,6.50
2017-11-22T07:29:54.975Z,6.30
2017-11-22T07:32:21.555Z,7.07
2017-11-22T07:34:48.139Z,6.60
2017-11-22T07:37:20.371Z,6.30
2017-11-22T07:39:46.969Z,5.80
2017-11-22T07:42:13.539Z,5.80
2017-11-22T07:44:40.122Z,6.40
2017-11-22T07:47:12.492Z,6.87
2017-11-22T07:49:44.489Z,6.37
2017-11-22T07:52:15.009Z,5.90
2017-11-22T07:54:41.611Z,6.37
2017-11-22T07:57:11.024Z,6.07
2017-11-22T07:59:37.618Z,6.00
2017-11-22T08:02:04.195Z,6.47
2017-11-22T08:04:31.886Z,6.43
2017-11-22T08:06:58.620Z,6.43
2017-11-22T08:09:25.206Z,6.40
2017-11-22T08:11:51.783Z,6.77
2017-11-22T08:14:18.371Z,6.37
2017-11-22T08:16:44.952Z,6.50
2017-11-22T08:19:11.543Z,6.83
2017-11-22T08:21:39.010Z,6.33
2017-11-22T08:24:05.591Z,6.07
2017-11-22T08:26:32.169Z,7.03
2017-11-22T08:28:58.748Z,6.10
2017-11-22T08:31:25.349Z,6.50
2017-11-22T08:33:51.937Z,7.20
2017-11-22T08:36:18.517Z,6.87
2017-11-22T08:38:45.724Z,6.47
2017-11-22T08:41:12.308Z,6.90
2017-11-22T08:43:43.688Z,6.83
2017-11-22T08:46:10.267Z,6.60
2017-11-22T08:48:36.855Z,6.67
2017-11-22T08:51:03.435Z,6.83
2017-11-22T08:53:30.015Z,6.50
2017-11-22T08:56:02.447Z,6.90
2017-11-22T08:58:29.160Z,6.70
2017-11-22T09:00:55.744Z,6.50
2017-11-22T09:03:23.193Z,6.37
2017-11-22T09:05:49.795Z,6.40
2017-11-22T09:08:16.375Z,6.80
2017-11-22T09:10:42.955Z,6.40
2017-11-22T09:13:15.720Z,6.53
2017-11-22T09:15:42.296Z,6.87
2017-11-22T09:18:12.706Z,6.40
2017-11-22T09:20:39.321Z,6.80
2017-11-22T09:23:05.872Z,6.57
2017-11-22T09:25:32.455Z,7.70
2017-11-22T09:27:59.042Z,6.67
2017-11-22T09:30:25.636Z,5.90
2017-11-22T09:32:52.236Z,7.37
2017-11-22T09:35:19.021Z,7.10
2017-11-22T09:37:45.609Z,7.57
2017-11-22T09:40:12.188Z,7.07
2017-11-22T09:42:38.775Z,7.40
2017-11-22T09:45:05.365Z,6.83
2017-11-22T09:47:31.944Z,6.73
2017-11-22T09:49:58.527Z,6.43
2017-11-22T09:52:25.106Z,7.07
2017-11-22T09:54:51.715Z,7.23
2017-11-22T09:57:18.311Z,7.17
2017-11-22T09:59:44.884Z,6.97
2017-11-22T10:02:11.475Z,7.20
2017-11-22T10:04:38.055Z,7.23
2017-11-22T10:07:04.642Z,7.50
2017-11-22T10:09:31.219Z,7.20
2017-11-22T10:11:57.801Z,7.00
2017-11-22T10:14:24.387Z,7.53
2017-11-22T10:16:56.603Z,6.80
2017-11-22T10:19:24.096Z,7.33
2017-11-22T10:21:56.333Z,7.37
2017-11-22T10:24:28.785Z,7.50
2017-11-22T10:26:55.369Z,7.17
2017-11-22T10:29:23.755Z,6.93
2017-11-22T10:31:50.368Z,7.70
2017-11-22T10:34:16.944Z,7.70
2017-11-22T10:36:43.537Z,7.40
2017-11-22T10:39:10.114Z,7.23
2017-11-22T10:41:36.695Z,7.63
2017-11-22T10:44:03.287Z,7.40
2017-11-22T10:46:29.866Z,7.73
2017-11-22T10:48:56.464Z,7.87
2017-11-22T10:51:23.051Z,7.40
2017-11-22T10:53:49.636Z,7.73
2017-11-22T10:56:16.234Z,7.60
2017-11-22T10:58:42.816Z,8.20
2017-11-22T11:01:09.420Z,8.10
2017-11-22T11:03:36.012Z,8.13
2017-11-22T11:06:02.588Z,8.07
2017-11-22T11:08:29.192Z,7.67
2017-11-22T11:10:55.779Z,8.50
2017-11-22T11:13:22.374Z,7.70
2017-11-22T11:15:48.955Z,8.10
2017-11-22T11:18:15.561Z,7.83
2017-11-22T11:20:42.138Z,8.37
2017-11-22T11:23:08.718Z,8.10
2017-11-22T11:25:35.315Z,8.17
2017-11-22T11:28:01.895Z,8.33
2017-11-22T11:30:28.483Z,7.60
2017-11-22T11:32:55.178Z,7.60
2017-11-22T11:35:27.667Z,7.67
2017-11-22T11:37:54.267Z,8.27
2017-11-22T11:40:20.856Z,7.77
2017-11-22T11:42:47.448Z,8.17
2017-11-22T11:45:14.035Z,7.80
2017-11-22T11:47:40.616Z,8.20
2017-11-22T11:50:07.209Z,7.80
2017-11-22T11:52:33.791Z,8.50
2017-11-22T11:55:00.388Z,8.27
2017-11-22T11:57:26.968Z,7.50
2017-11-22T11:59:53.555Z,7.97
2017-11-22T12:02:20.152Z,7.27
2017-11-22T12:04:46.734Z,8.50
2017-11-22T12:07:13.332Z,7.57
2017-11-22T12:09:39.911Z,7.73
2017-11-22T12:12:06.492Z,8.00
2017-11-22T12:14:33.082Z,8.20
2017-11-22T12:16:59.660Z,7.53
2017-11-22T12:19:26.260Z,8.07
2017-11-22T12:21:58.428Z,8.00
2017-11-22T12:24:25.008Z,7.77
2017-11-22T12:26:51.599Z,7.53
2017-11-22T12:29:18.199Z,8.00
2017-11-22T12:31:44.794Z,7.80
2017-11-22T12:34:14.070Z,7.13
2017-11-22T12:36:41.499Z,7.30
2017-11-22T12:39:08.086Z,6.90
2017-11-22T12:41:34.677Z,7.57
2017-11-22T12:44:01.274Z,7.77
2017-11-22T12:46:27.853Z,7.30
2017-11-22T12:48:54.431Z,8.10
2017-11-22T12:51:21.103Z,7.73
2017-11-22T12:53:47.660Z,7.47
2017-11-22T12:56:14.255Z,7.50
2017-11-22T12:58:40.854Z,7.20
2017-11-22T13:01:07.424Z,7.40
2017-11-22T13:03:34.012Z,6.90
2017-11-22T13:06:00.598Z,7.80
2017-11-22T13:08:27.219Z,7.27
2017-11-22T13:10:57.543Z,7.30
2017-11-22T13:13:25.963Z,7.97
2017-11-22T13:15:52.547Z,7.30
2017-11-22T13:18:19.149Z,6.57
2017-11-22T13:20:45.751Z,7.30
2017-11-22T13:23:12.335Z,6.50
2017-11-22T13:25:38.920Z,7.20
2017-11-22T13:28:05.514Z,7.03
2017-11-22T13:30:32.089Z,7.10
2017-11-22T13:32:58.684Z,7.27
2017-11-22T13:35:25.268Z,7.10
2017-11-22T13:37:51.862Z,6.80
2017-11-22T13:40:18.540Z,7.30
2017-11-22T13:42:46.951Z,6.60
2017-11-22T13:45:13.545Z,7.10
2017-11-22T13:47:40.119Z,6.80
2017-11-22T13:50:06.703Z,6.70
2017-11-22T13:52:33.293Z,6.87
2017-11-22T13:55:00.504Z,6.80
2017-11-22T13:57:27.102Z,6.83
2017-11-22T13:59:53.679Z,6.70
2017-11-22T14:02:20.265Z,7.20
2017-11-22T14:04:46.862Z,6.87
2017-11-22T14:07:13.447Z,6.97
2017-11-22T14:09:40.032Z,7.07
2017-11-22T14:12:06.611Z,6.90
2017-11-22T14:14:33.211Z,6.40
2017-11-22T14:16:59.796Z,6.17
2017-11-22T14:19:26.376Z,6.77
2017-11-22T14:21:52.971Z,6.60
2017-11-22T14:24:19.560Z,6.60
2017-11-22T14:26:46.143Z,6.57
2017-11-22T14:29:12.741Z,6.87
2017-11-22T14:31:39.338Z,6.53
2017-11-22T14:34:05.919Z,6.87
2017-11-22T14:36:32.502Z,6.60
2017-11-22T14:38:59.092Z,6.20
2017-11-22T14:41:25.674Z,6.57
2017-11-22T14:43:52.319Z,6.73
2017-11-22T14:46:18.912Z,5.93
2017-11-22T14:48:46.131Z,6.30
2017-11-22T14:51:12.712Z,6.50
2017-11-22T14:53:39.292Z,6.77
2017-11-22T14:56:05.879Z,6.43
2017-11-22T14:58:32.460Z,6.20
2017-11-22T15:00:59.056Z,6.23
2017-11-22T15:03:25.631Z,6.40
2017-11-22T15:05:52.225Z,6.40
2017-11-22T15:08:18.841Z,6.60
2017-11-22T15:10:45.392Z,6.73
2017-11-22T15:13:11.983Z,6.93
2017-11-22T15:15:38.568Z,6.70
2017-11-22T15:18:05.156Z,6.13
2017-11-22T15:20:31.742Z,6.43
2017-11-22T15:22:58.324Z,6.30
2017-11-22T15:25:24.912Z,6.33
2017-11-22T15:27:51.499Z,6.80
2017-11-22T15:30:18.093Z,6.43
2017-11-22T15:32:44.720Z,6.87
2017-11-22T15:35:11.301Z,6.30
2017-11-22T15:37:37.890Z,6.60
2017-11-22T15:40:04.480Z,7.10
2017-11-22T15:42:31.072Z,6.27
2017-11-22T15:44:57.656Z,6.80
2017-11-22T15:47:24.248Z,6.00
2017-11-22T15:49:50.831Z,6.53
2017-11-22T15:52:17.419Z,6.37
2017-11-22T15:54:44.007Z,6.23
2017-11-22T15:57:10.588Z,6.67
2017-11-22T15:59:37.204Z,6.50
2017-11-22T16:02:03.785Z,6.80
2017-11-22T16:04:30.380Z,6.93
2017-11-22T16:06:56.973Z,5.80
2017-11-22T16:09:23.555Z,7.80
2017-11-22T16:11:50.139Z,6.43
2017-11-22T16:14:16.720Z,6.43
2017-11-22T16:16:43.308Z,6.70
2017-11-22T16:19:11.666Z,7.17
2017-11-22T16:21:38.369Z,6.63
2017-11-22T16:24:04.932Z,6.97
2017-11-22T16:26:31.522Z,7.60
2017-11-22T16:28:58.112Z,8.00
2017-11-22T16:31:24.695Z,8.43
2017-11-22T16:33:51.286Z,8.47
2017-11-22T16:36:17.863Z,8.60
2017-11-22T16:38:44.458Z,8.20
2017-11-22T16:41:11.039Z,8.03
2017-11-22T16:43:37.637Z,7.73
2017-11-22T16:46:04.231Z,7.90
2017-11-22T16:48:30.819Z,8.60
2017-11-22T16:50:57.399Z,9.03
2017-11-22T16:53:23.992Z,8.33
2017-11-22T16:55:50.579Z,7.60
2017-11-22T16:58:17.177Z,9.70
2017-11-22T17:00:43.755Z,7.77
2017-11-22T17:03:10.331Z,7.80
2017-11-22T17:05:36.919Z,8.30
2017-11-22T17:08:03.508Z,9.00
2017-11-22T17:10:30.103Z,8.93
2017-11-22T17:12:56.679Z,8.10
2017-11-22T17:15:23.295Z,8.40
2017-11-22T17:17:49.871Z,8.37
2017-11-22T17:20:16.464Z,8.43
2017-11-22T17:22:43.052Z,8.93
2017-11-22T17:25:09.637Z,8.27
2017-11-22T17:27:36.222Z,8.10
2017-11-22T17:30:02.809Z,8.93
2017-11-22T17:32:29.419Z,7.97
2017-11-22T17:34:56.009Z,8.07
2017-11-22T17:37:22.600Z,8.43
2017-11-22T17:39:49.215Z,8.20
2017-11-22T17:42:15.799Z,8.57
2017-11-22T17:44:42.404Z,8.30
2017-11-22T17:47:08.995Z,8.63
2017-11-22T17:49:35.587Z,8.70
2017-11-22T17:52:02.168Z,8.73
2017-11-22T17:54:28.756Z,8.60
2017-11-22T17:56:55.351Z,8.20
2017-11-22T17:59:21.943Z,8.10
2017-11-22T18:01:48.550Z,8.37
2017-11-22T18:04:15.132Z,7.60
2017-11-22T18:06:41.723Z,7.40
2017-11-22T18:09:08.307Z,8.13
2017-11-22T18:11:34.887Z,8.30
2017-11-22T18:14:01.480Z,8.20
2017-11-22T18:16:28.064Z,7.53
2017-11-22T18:18:54.656Z,7.90
2017-11-22T18:21:21.239Z,7.93
2017-11-22T18:23:47.839Z,8.00
2017-11-22T18:26:14.407Z,7.87
2017-11-22T18:28:40.991Z,7.63
2017-11-22T18:31:07.594Z,8.20
2017-11-22T18:33:34.167Z,7.67
2017-11-22T18:36:00.755Z,7.20
2017-11-22T18:38:27.336Z,7.50
2017-11-22T18:40:53.930Z,7.03
2017-11-22T18:43:20.523Z,7.80
2017-11-22T18:45:47.096Z,7.00
2017-11-22T18:48:13.686Z,7.20
2017-11-22T18:50:40.263Z,7.00
2017-11-22T18:53:06.859Z,7.03
2017-11-22T18:55:33.439Z,7.40
2017-11-22T18:58:00.060Z,6.93
2017-11-22T19:00:26.671Z,6.87
2017-11-22T19:02:53.245Z,6.97
2017-11-22T19:05:19.839Z,7.23
2017-11-22T19:07:46.428Z,6.97
2017-11-22T19:10:13.023Z,6.70
2017-11-22T19:12:39.703Z,6.57
2017-11-22T19:15:06.288Z,6.77
2017-11-22T19:17:32.863Z,6.80
2017-11-22T19:19:59.455Z,7.07
2017-11-22T19:22:26.032Z,6.70
2017-11-22T19:24:52.610Z,6.70
2017-11-22T19:27:19.211Z,6.37
2017-11-22T19:29:45.846Z,6.70
2017-11-22T19:32:12.427Z,7.13
2017-11-22T19:34:39.021Z,6.67
2017-11-22T19:37:05.601Z,6.97
2017-11-22T19:39:32.188Z,6.90
2017-11-22T19:41:58.769Z,6.43
2017-11-22T19:44:25.359Z,5.93
2017-11-22T19:46:51.941Z,6.50
2017-11-22T19:49:18.555Z,6.63
2017-11-22T19:51:45.132Z,6.60
2017-11-22T19:54:11.712Z,6.33
2017-11-22T19:56:38.301Z,6.20
2017-11-22T19:59:04.891Z,6.17
2017-11-22T20:01:31.484Z,6.10
2017-11-22T20:03:58.064Z,6.30
2017-11-22T20:06:24.647Z,6.90
2017-11-22T20:08:51.239Z,6.27
2017-11-22T20:11:17.839Z,6.30
2017-11-22T20:13:45.410Z,6.30
2017-11-22T20:16:12.067Z,5.93
2017-11-22T20:18:38.653Z,6.23
2017-11-22T20:21:05.304Z,6.10
2017-11-22T20:23:32.191Z,6.03
2017-11-22T20:25:58.788Z,6.03
2017-11-22T20:28:25.400Z,6.33
2017-11-22T20:30:51.983Z,5.97
2017-11-22T20:33:18.584Z,6.40
2017-11-22T20:35:45.164Z,6.23
2017-11-22T20:38:11.783Z,6.00
2017-11-22T20:40:38.367Z,6.00
2017-11-22T20:43:04.948Z,6.13
2017-11-22T20:45:31.559Z,6.03
2017-11-22T20:47:58.134Z,6.50
2017-11-22T20:50:24.839Z,5.53
2017-11-22T20:52:51.428Z,5.97
2017-11-22T20:55:18.024Z,5.87
2017-11-22T20:57:44.607Z,5.90
2017-11-22T21:00:14.016Z,5.70
2017-11-22T21:02:40.635Z,5.87
2017-11-22T21:05:07.224Z,6.60
2017-11-22T21:07:33.812Z,6.30
2017-11-22T21:10:00.400Z,5.90
2017-11-22T21:12:27.001Z,6.30
2017-11-22T21:14:54.545Z,6.03
2017-11-22T21:17:21.132Z,5.90
2017-11-22T21:19:47.736Z,5.77
2017-11-22T21:22:16.315Z,5.93
2017-11-22T21:24:42.921Z,5.93
2017-11-22T21:27:09.504Z,6.33
2017-11-22T21:29:36.104Z,6.10
2017-11-22T21:32:03.899Z,6.47
2017-11-22T21:34:30.563Z,5.37
2017-11-22T21:36:57.159Z,5.63
2017-11-22T21:39:23.742Z,6.10
2017-11-22T21:41:50.339Z,6.20
2017-11-22T21:44:16.945Z,5.60
2017-11-22T21:46:43.539Z,6.00
2017-11-22T21:49:10.159Z,5.40
2017-11-22T21:51:36.744Z,5.50
2017-11-22T21:54:03.333Z,5.27
2017-11-22T21:56:29.911Z,5.73
2017-11-22T21:58:56.508Z,5.97
2017-11-22T22:01:23.100Z,6.30
2017-11-22T22:03:49.701Z,5.93
2017-11-22T22:06:16.294Z,5.77
2017-11-22T22:08:42.895Z,5.60
2017-11-22T22:11:09.495Z,5.70
2017-11-22T22:13:36.078Z,6.07
2017-11-22T22:16:02.671Z,5.57
2017-11-22T22:18:29.252Z,5.37
2017-11-22T22:20:55.852Z,5.73
2017-11-22T22:23:22.433Z,5.40
2017-11-22T22:25:49.041Z,5.30
2017-11-22T22:28:15.624Z,5.43
2017-11-22T22:30:42.212Z,5.47
2017-11-22T22:33:08.800Z,5.53
2017-11-22T22:35:35.380Z,5.33
2017-11-22T22:38:01.976Z,5.60
2017-11-22T22:40:28.551Z,5.20
2017-11-22T22:42:55.144Z,5.50
2017-11-22T22:45:21.756Z,5.13
2017-11-22T22:47:48.349Z,5.73
2017-11-22T22:50:14.940Z,5.50
2017-11-22T22:52:41.528Z,5.20
2017-11-22T22:55:08.111Z,5.10
2017-11-22T22:57:34.695Z,5.07
2017-11-22T23:00:01.292Z,5.33
2017-11-22T23:02:27.863Z,5.00
2017-11-22T23:04:54.447Z,4.80
2017-11-22T23:07:21.038Z,5.17
2017-11-22T23:09:47.629Z,5.17
2017-11-22T23:12:14.215Z,5.27
2017-11-22T23:14:40.808Z,5.30
2017-11-22T23:17:07.394Z,4.90
2017-11-22T23:19:33.984Z,5.27
2017-11-22T23:22:00.579Z,4.90
2017-11-22T23:24:27.159Z,4.93
2017-11-22T23:26:53.752Z,4.90
2017-11-22T23:29:20.346Z,4.70
2017-11-22T23:31:46.939Z,5.23
2017-11-22T23:34:13.522Z,5.40
2017-11-22T23:36:40.104Z,5.50
2017-11-22T23:39:06.695Z,4.87
2017-11-22T23:41:33.280Z,4.57
2017-11-22T23:43:59.867Z,5.00
2017-11-22T23:46:26.452Z,4.80
2017-11-22T23:48:53.040Z,5.17
2017-11-22T23:51:19.633Z,5.03
2017-11-22T23:53:46.208Z,4.87
2017-11-22T23:56:12.795Z,4.93
2017-11-22T23:58:39.403Z,4.83
